sensor_id;sensor_type;location;lat;lon;timestamp;temperature;humidity
9271;DHT22;4673;53.458;9.940;2022-07-19T00:00:06;16.80;76.10
9271;DHT22;4673;53.458;9.940;2022-07-19T00:02:35;16.70;76.00
9271;DHT22;4673;53.458;9.940;2022-07-19T00:05:00;16.70;76.20
9271;DHT22;4673;53.458;9.940;2022-07-19T00:07:26;16.70;76.30
9271;DHT22;4673;53.458;9.940;2022-07-19T00:09:52;16.60;76.40
9271;DHT22;4673;53.458;9.940;2022-07-19T00:12:17;16.60;76.40
9271;DHT22;4673;53.458;9.940;2022-07-19T00:14:43;16.60;76.50
9271;DHT22;4673;53.458;9.940;2022-07-19T00:17:08;16.60;76.70
9271;DHT22;4673;53.458;9.940;2022-07-19T00:19:34;16.50;76.60
9271;DHT22;4673;53.458;9.940;2022-07-19T00:22:00;16.50;76.60
9271;DHT22;4673;53.458;9.940;2022-07-19T00:24:26;16.50;76.60
9271;DHT22;4673;53.458;9.940;2022-07-19T00:26:51;16.50;76.80
9271;DHT22;4673;53.458;9.940;2022-07-19T00:29:17;16.40;76.90
9271;DHT22;4673;53.458;9.940;2022-07-19T00:31:42;16.40;77.00
9271;DHT22;4673;53.458;9.940;2022-07-19T00:34:08;16.40;76.90
9271;DHT22;4673;53.458;9.940;2022-07-19T00:36:34;16.30;77.00
9271;DHT22;4673;53.458;9.940;2022-07-19T00:39:00;16.40;77.30
9271;DHT22;4673;53.458;9.940;2022-07-19T00:41:25;16.40;77.60
9271;DHT22;4673;53.458;9.940;2022-07-19T00:43:51;16.30;77.70
9271;DHT22;4673;53.458;9.940;2022-07-19T00:46:19;16.30;77.90
9271;DHT22;4673;53.458;9.940;2022-07-19T00:48:45;16.20;78.10
9271;DHT22;4673;53.458;9.940;2022-07-19T00:51:14;16.20;78.30
9271;DHT22;4673;53.458;9.940;2022-07-19T00:53:41;16.20;78.40
9271;DHT22;4673;53.458;9.940;2022-07-19T00:56:08;16.10;78.50
9271;DHT22;4673;53.458;9.940;2022-07-19T00:58:36;16.10;78.40
9271;DHT22;4673;53.458;9.940;2022-07-19T01:01:04;16.10;78.30
9271;DHT22;4673;53.458;9.940;2022-07-19T01:03:30;16.00;78.30
9271;DHT22;4673;53.458;9.940;2022-07-19T01:05:56;16.00;79.10
9271;DHT22;4673;53.458;9.940;2022-07-19T01:08:22;16.00;79.20
9271;DHT22;4673;53.458;9.940;2022-07-19T01:10:48;16.00;79.20
9271;DHT22;4673;53.458;9.940;2022-07-19T01:13:14;16.00;79.30
9271;DHT22;4673;53.458;9.940;2022-07-19T01:15:41;15.90;79.30
9271;DHT22;4673;53.458;9.940;2022-07-19T01:18:08;15.90;79.20
9271;DHT22;4673;53.458;9.940;2022-07-19T01:20:34;15.90;79.30
9271;DHT22;4673;53.458;9.940;2022-07-19T01:23:00;15.90;79.70
9271;DHT22;4673;53.458;9.940;2022-07-19T01:25:31;15.80;79.80
9271;DHT22;4673;53.458;9.940;2022-07-19T01:27:57;15.90;80.00
9271;DHT22;4673;53.458;9.940;2022-07-19T01:30:24;15.80;79.80
9271;DHT22;4673;53.458;9.940;2022-07-19T01:32:51;15.90;79.70
9271;DHT22;4673;53.458;9.940;2022-07-19T01:35:17;15.80;79.30
9271;DHT22;4673;53.458;9.940;2022-07-19T01:37:43;15.80;79.30
9271;DHT22;4673;53.458;9.940;2022-07-19T01:40:11;15.80;79.40
9271;DHT22;4673;53.458;9.940;2022-07-19T01:42:38;15.70;79.60
9271;DHT22;4673;53.458;9.940;2022-07-19T01:45:05;15.70;79.70
9271;DHT22;4673;53.458;9.940;2022-07-19T01:47:31;15.70;79.60
9271;DHT22;4673;53.458;9.940;2022-07-19T01:49:57;15.70;79.70
9271;DHT22;4673;53.458;9.940;2022-07-19T01:52:22;15.70;79.70
9271;DHT22;4673;53.458;9.940;2022-07-19T01:54:48;15.60;79.60
9271;DHT22;4673;53.458;9.940;2022-07-19T01:57:14;15.60;79.80
9271;DHT22;4673;53.458;9.940;2022-07-19T01:59:39;15.60;80.00
9271;DHT22;4673;53.458;9.940;2022-07-19T02:02:05;15.60;79.90
9271;DHT22;4673;53.458;9.940;2022-07-19T02:04:32;15.60;79.90
9271;DHT22;4673;53.458;9.940;2022-07-19T02:06:57;15.60;80.00
9271;DHT22;4673;53.458;9.940;2022-07-19T02:09:24;15.60;80.20
9271;DHT22;4673;53.458;9.940;2022-07-19T02:11:49;15.50;80.00
9271;DHT22;4673;53.458;9.940;2022-07-19T02:14:15;15.50;79.90
9271;DHT22;4673;53.458;9.940;2022-07-19T02:16:41;15.50;80.00
9271;DHT22;4673;53.458;9.940;2022-07-19T02:19:07;15.50;80.10
9271;DHT22;4673;53.458;9.940;2022-07-19T02:21:34;15.60;79.90
9271;DHT22;4673;53.458;9.940;2022-07-19T02:24:00;15.50;79.80
9271;DHT22;4673;53.458;9.940;2022-07-19T02:26:26;15.50;79.80
9271;DHT22;4673;53.458;9.940;2022-07-19T02:28:52;15.40;79.60
9271;DHT22;4673;53.458;9.940;2022-07-19T02:31:19;15.40;79.80
9271;DHT22;4673;53.458;9.940;2022-07-19T02:33:45;15.40;79.70
9271;DHT22;4673;53.458;9.940;2022-07-19T02:36:10;15.40;79.80
9271;DHT22;4673;53.458;9.940;2022-07-19T02:38:36;15.40;80.30
9271;DHT22;4673;53.458;9.940;2022-07-19T02:41:02;15.40;80.40
9271;DHT22;4673;53.458;9.940;2022-07-19T02:43:28;15.30;80.50
9271;DHT22;4673;53.458;9.940;2022-07-19T02:45:53;15.30;80.50
9271;DHT22;4673;53.458;9.940;2022-07-19T02:48:19;15.30;80.60
9271;DHT22;4673;53.458;9.940;2022-07-19T02:50:45;15.30;80.40
9271;DHT22;4673;53.458;9.940;2022-07-19T02:53:10;15.30;80.30
9271;DHT22;4673;53.458;9.940;2022-07-19T02:55:37;15.30;80.20
9271;DHT22;4673;53.458;9.940;2022-07-19T02:58:03;15.30;80.00
9271;DHT22;4673;53.458;9.940;2022-07-19T03:00:29;15.30;79.90
9271;DHT22;4673;53.458;9.940;2022-07-19T03:02:54;15.40;79.80
9271;DHT22;4673;53.458;9.940;2022-07-19T03:05:20;15.40;79.60
9271;DHT22;4673;53.458;9.940;2022-07-19T03:07:46;15.30;79.40
9271;DHT22;4673;53.458;9.940;2022-07-19T03:10:11;15.30;79.40
9271;DHT22;4673;53.458;9.940;2022-07-19T03:12:37;15.40;79.80
9271;DHT22;4673;53.458;9.940;2022-07-19T03:15:04;15.50;80.10
9271;DHT22;4673;53.458;9.940;2022-07-19T03:17:30;15.60;80.00
9271;DHT22;4673;53.458;9.940;2022-07-19T03:19:55;15.60;80.00
9271;DHT22;4673;53.458;9.940;2022-07-19T03:22:21;15.60;79.80
9271;DHT22;4673;53.458;9.940;2022-07-19T03:24:47;15.70;79.70
9271;DHT22;4673;53.458;9.940;2022-07-19T03:27:12;15.70;79.50
9271;DHT22;4673;53.458;9.940;2022-07-19T03:29:38;15.70;79.30
9271;DHT22;4673;53.458;9.940;2022-07-19T03:32:04;15.70;79.40
9271;DHT22;4673;53.458;9.940;2022-07-19T03:34:29;15.70;79.30
9271;DHT22;4673;53.458;9.940;2022-07-19T03:36:55;15.80;79.30
9271;DHT22;4673;53.458;9.940;2022-07-19T03:39:21;15.80;79.40
9271;DHT22;4673;53.458;9.940;2022-07-19T03:41:47;15.90;79.40
9271;DHT22;4673;53.458;9.940;2022-07-19T03:44:13;15.90;79.10
9271;DHT22;4673;53.458;9.940;2022-07-19T03:46:38;16.00;78.90
9271;DHT22;4673;53.458;9.940;2022-07-19T03:49:04;16.00;78.80
9271;DHT22;4673;53.458;9.940;2022-07-19T03:51:30;16.10;78.60
9271;DHT22;4673;53.458;9.940;2022-07-19T03:53:56;16.10;78.40
9271;DHT22;4673;53.458;9.940;2022-07-19T03:56:21;16.20;78.30
9271;DHT22;4673;53.458;9.940;2022-07-19T03:58:48;16.30;78.20
9271;DHT22;4673;53.458;9.940;2022-07-19T04:01:14;16.30;78.00
9271;DHT22;4673;53.458;9.940;2022-07-19T04:03:41;16.30;77.90
9271;DHT22;4673;53.458;9.940;2022-07-19T04:06:07;16.40;77.90
9271;DHT22;4673;53.458;9.940;2022-07-19T04:08:34;16.40;77.80
9271;DHT22;4673;53.458;9.940;2022-07-19T04:11:00;16.50;77.90
9271;DHT22;4673;53.458;9.940;2022-07-19T04:13:26;16.60;77.90
9271;DHT22;4673;53.458;9.940;2022-07-19T04:15:52;16.60;77.70
9271;DHT22;4673;53.458;9.940;2022-07-19T04:18:18;16.80;77.70
9271;DHT22;4673;53.458;9.940;2022-07-19T04:20:43;16.90;77.60
9271;DHT22;4673;53.458;9.940;2022-07-19T04:23:09;17.10;77.10
9271;DHT22;4673;53.458;9.940;2022-07-19T04:25:35;17.10;76.70
9271;DHT22;4673;53.458;9.940;2022-07-19T04:28:01;17.20;76.30
9271;DHT22;4673;53.458;9.940;2022-07-19T04:30:27;17.40;75.90
9271;DHT22;4673;53.458;9.940;2022-07-19T04:32:53;17.50;75.60
9271;DHT22;4673;53.458;9.940;2022-07-19T04:35:19;17.60;75.20
9271;DHT22;4673;53.458;9.940;2022-07-19T04:37:45;17.70;75.10
9271;DHT22;4673;53.458;9.940;2022-07-19T04:40:11;17.80;75.00
9271;DHT22;4673;53.458;9.940;2022-07-19T04:42:37;18.00;74.80
9271;DHT22;4673;53.458;9.940;2022-07-19T04:45:04;18.30;74.50
9271;DHT22;4673;53.458;9.940;2022-07-19T04:47:29;18.40;73.80
9271;DHT22;4673;53.458;9.940;2022-07-19T04:49:55;18.50;73.50
9271;DHT22;4673;53.458;9.940;2022-07-19T04:52:21;18.60;73.30
9271;DHT22;4673;53.458;9.940;2022-07-19T04:54:46;18.80;74.60
9271;DHT22;4673;53.458;9.940;2022-07-19T04:57:12;19.30;75.00
9271;DHT22;4673;53.458;9.940;2022-07-19T04:59:39;20.10;74.90
9271;DHT22;4673;53.458;9.940;2022-07-19T05:02:05;21.10;72.60
9271;DHT22;4673;53.458;9.940;2022-07-19T05:04:31;21.90;68.90
9271;DHT22;4673;53.458;9.940;2022-07-19T05:06:56;22.40;64.90
9271;DHT22;4673;53.458;9.940;2022-07-19T05:09:26;22.50;62.60
9271;DHT22;4673;53.458;9.940;2022-07-19T05:11:53;22.50;61.70
9271;DHT22;4673;53.458;9.940;2022-07-19T05:14:18;22.40;61.20
9271;DHT22;4673;53.458;9.940;2022-07-19T05:16:45;22.20;61.20
9271;DHT22;4673;53.458;9.940;2022-07-19T05:19:10;22.10;61.60
9271;DHT22;4673;53.458;9.940;2022-07-19T05:21:36;22.00;63.10
9271;DHT22;4673;53.458;9.940;2022-07-19T05:24:02;21.90;63.70
9271;DHT22;4673;53.458;9.940;2022-07-19T05:26:28;21.90;63.90
9271;DHT22;4673;53.458;9.940;2022-07-19T05:28:54;21.90;64.10
9271;DHT22;4673;53.458;9.940;2022-07-19T05:31:19;21.90;64.00
9271;DHT22;4673;53.458;9.940;2022-07-19T05:33:45;21.90;64.10
9271;DHT22;4673;53.458;9.940;2022-07-19T05:36:11;21.90;64.40
9271;DHT22;4673;53.458;9.940;2022-07-19T05:38:40;21.90;64.70
9271;DHT22;4673;53.458;9.940;2022-07-19T05:41:07;22.10;64.70
9271;DHT22;4673;53.458;9.940;2022-07-19T05:43:34;22.20;64.30
9271;DHT22;4673;53.458;9.940;2022-07-19T05:46:00;22.20;64.00
9271;DHT22;4673;53.458;9.940;2022-07-19T05:48:26;22.20;63.70
9271;DHT22;4673;53.458;9.940;2022-07-19T05:50:51;22.20;64.20
9271;DHT22;4673;53.458;9.940;2022-07-19T05:53:17;22.20;63.80
9271;DHT22;4673;53.458;9.940;2022-07-19T05:55:44;22.20;63.60
9271;DHT22;4673;53.458;9.940;2022-07-19T05:58:10;22.10;61.70
9271;DHT22;4673;53.458;9.940;2022-07-19T06:00:35;22.20;61.80
9271;DHT22;4673;53.458;9.940;2022-07-19T06:03:01;22.20;61.10
9271;DHT22;4673;53.458;9.940;2022-07-19T06:05:26;22.30;61.00
9271;DHT22;4673;53.458;9.940;2022-07-19T06:07:52;22.40;60.40
9271;DHT22;4673;53.458;9.940;2022-07-19T06:10:18;22.40;60.40
9271;DHT22;4673;53.458;9.940;2022-07-19T06:12:43;22.30;60.10
9271;DHT22;4673;53.458;9.940;2022-07-19T06:15:09;22.30;60.20
9271;DHT22;4673;53.458;9.940;2022-07-19T06:17:35;22.30;60.70
9271;DHT22;4673;53.458;9.940;2022-07-19T06:20:01;22.40;60.90
9271;DHT22;4673;53.458;9.940;2022-07-19T06:22:30;22.40;61.00
9271;DHT22;4673;53.458;9.940;2022-07-19T06:24:57;22.50;60.60
9271;DHT22;4673;53.458;9.940;2022-07-19T06:27:23;22.50;60.20
9271;DHT22;4673;53.458;9.940;2022-07-19T06:29:48;22.50;60.00
9271;DHT22;4673;53.458;9.940;2022-07-19T06:32:14;22.60;60.40
9271;DHT22;4673;53.458;9.940;2022-07-19T06:34:39;22.60;60.10
9271;DHT22;4673;53.458;9.940;2022-07-19T06:37:05;22.70;59.50
9271;DHT22;4673;53.458;9.940;2022-07-19T06:39:31;22.70;59.00
9271;DHT22;4673;53.458;9.940;2022-07-19T06:41:56;22.70;58.20
9271;DHT22;4673;53.458;9.940;2022-07-19T06:44:22;22.70;57.40
9271;DHT22;4673;53.458;9.940;2022-07-19T06:46:48;22.70;56.60
9271;DHT22;4673;53.458;9.940;2022-07-19T06:49:13;22.80;56.40
9271;DHT22;4673;53.458;9.940;2022-07-19T06:51:40;22.80;55.40
9271;DHT22;4673;53.458;9.940;2022-07-19T06:54:05;22.80;55.70
9271;DHT22;4673;53.458;9.940;2022-07-19T06:56:31;22.90;55.30
9271;DHT22;4673;53.458;9.940;2022-07-19T06:58:57;23.00;55.00
9271;DHT22;4673;53.458;9.940;2022-07-19T07:01:22;23.00;54.90
9271;DHT22;4673;53.458;9.940;2022-07-19T07:03:48;23.10;54.40
9271;DHT22;4673;53.458;9.940;2022-07-19T07:06:14;23.10;54.00
9271;DHT22;4673;53.458;9.940;2022-07-19T07:08:39;23.30;52.40
9271;DHT22;4673;53.458;9.940;2022-07-19T07:11:05;23.30;52.10
9271;DHT22;4673;53.458;9.940;2022-07-19T07:13:31;23.40;52.10
9271;DHT22;4673;53.458;9.940;2022-07-19T07:15:56;23.50;51.70
9271;DHT22;4673;53.458;9.940;2022-07-19T07:18:22;23.60;50.30
9271;DHT22;4673;53.458;9.940;2022-07-19T07:20:48;23.70;50.10
9271;DHT22;4673;53.458;9.940;2022-07-19T07:23:13;23.80;50.50
9271;DHT22;4673;53.458;9.940;2022-07-19T07:25:39;23.90;48.90
9271;DHT22;4673;53.458;9.940;2022-07-19T07:28:05;24.10;48.60
9271;DHT22;4673;53.458;9.940;2022-07-19T07:30:30;24.10;48.40
9271;DHT22;4673;53.458;9.940;2022-07-19T07:32:56;24.20;48.20
9271;DHT22;4673;53.458;9.940;2022-07-19T07:35:22;24.30;48.90
9271;DHT22;4673;53.458;9.940;2022-07-19T07:37:48;24.40;49.60
9271;DHT22;4673;53.458;9.940;2022-07-19T07:40:13;24.50;49.40
9271;DHT22;4673;53.458;9.940;2022-07-19T07:42:39;24.60;49.10
9271;DHT22;4673;53.458;9.940;2022-07-19T07:45:05;24.70;48.10
9271;DHT22;4673;53.458;9.940;2022-07-19T07:47:32;24.70;47.90
9271;DHT22;4673;53.458;9.940;2022-07-19T07:49:58;24.70;48.00
9271;DHT22;4673;53.458;9.940;2022-07-19T07:52:24;24.80;48.20
9271;DHT22;4673;53.458;9.940;2022-07-19T07:54:49;24.80;46.80
9271;DHT22;4673;53.458;9.940;2022-07-19T07:57:15;24.80;46.70
9271;DHT22;4673;53.458;9.940;2022-07-19T07:59:41;24.90;46.20
9271;DHT22;4673;53.458;9.940;2022-07-19T08:02:07;25.00;45.90
9271;DHT22;4673;53.458;9.940;2022-07-19T08:04:33;25.00;44.30
9271;DHT22;4673;53.458;9.940;2022-07-19T08:06:58;25.10;43.20
9271;DHT22;4673;53.458;9.940;2022-07-19T08:09:24;25.30;41.10
9271;DHT22;4673;53.458;9.940;2022-07-19T08:11:50;25.40;40.70
9271;DHT22;4673;53.458;9.940;2022-07-19T08:14:15;25.40;41.70
9271;DHT22;4673;53.458;9.940;2022-07-19T08:16:41;25.40;42.00
9271;DHT22;4673;53.458;9.940;2022-07-19T08:19:07;25.50;42.40
9271;DHT22;4673;53.458;9.940;2022-07-19T08:21:32;25.60;39.90
9271;DHT22;4673;53.458;9.940;2022-07-19T08:23:58;25.70;38.40
9271;DHT22;4673;53.458;9.940;2022-07-19T08:26:24;25.70;38.60
9271;DHT22;4673;53.458;9.940;2022-07-19T08:28:49;25.90;37.40
9271;DHT22;4673;53.458;9.940;2022-07-19T08:31:15;26.00;35.30
9271;DHT22;4673;53.458;9.940;2022-07-19T08:33:41;26.10;34.20
9271;DHT22;4673;53.458;9.940;2022-07-19T08:36:07;26.20;34.60
9271;DHT22;4673;53.458;9.940;2022-07-19T08:38:35;26.30;35.30
9271;DHT22;4673;53.458;9.940;2022-07-19T08:41:02;26.30;35.60
9271;DHT22;4673;53.458;9.940;2022-07-19T08:43:27;26.40;36.60
9271;DHT22;4673;53.458;9.940;2022-07-19T08:45:53;26.50;36.40
9271;DHT22;4673;53.458;9.940;2022-07-19T08:48:19;26.70;33.70
9271;DHT22;4673;53.458;9.940;2022-07-19T08:50:46;26.70;33.20
9271;DHT22;4673;53.458;9.940;2022-07-19T08:53:14;26.90;34.80
9271;DHT22;4673;53.458;9.940;2022-07-19T08:55:40;27.00;32.50
9271;DHT22;4673;53.458;9.940;2022-07-19T08:58:06;27.10;29.60
9271;DHT22;4673;53.458;9.940;2022-07-19T09:00:33;27.20;28.80
9271;DHT22;4673;53.458;9.940;2022-07-19T09:03:03;27.30;29.10
9271;DHT22;4673;53.458;9.940;2022-07-19T09:05:29;27.40;28.40
9271;DHT22;4673;53.458;9.940;2022-07-19T09:08:10;27.50;29.10
9271;DHT22;4673;53.458;9.940;2022-07-19T09:10:38;27.50;29.90
9271;DHT22;4673;53.458;9.940;2022-07-19T09:15:46;27.60;29.40
9271;DHT22;4673;53.458;9.940;2022-07-19T09:18:24;27.70;29.90
9271;DHT22;4673;53.458;9.940;2022-07-19T09:20:53;27.80;30.20
9271;DHT22;4673;53.458;9.940;2022-07-19T09:23:20;27.90;29.90
9271;DHT22;4673;53.458;9.940;2022-07-19T09:25:55;28.00;30.50
9271;DHT22;4673;53.458;9.940;2022-07-19T09:28:23;28.10;29.60
9271;DHT22;4673;53.458;9.940;2022-07-19T09:30:53;28.20;29.80
9271;DHT22;4673;53.458;9.940;2022-07-19T09:33:24;28.20;29.50
9271;DHT22;4673;53.458;9.940;2022-07-19T09:35:54;28.30;28.50
9271;DHT22;4673;53.458;9.940;2022-07-19T09:38:32;28.50;28.90
9271;DHT22;4673;53.458;9.940;2022-07-19T09:41:13;28.50;28.20
9271;DHT22;4673;53.458;9.940;2022-07-19T09:44:02;28.60;27.90
9271;DHT22;4673;53.458;9.940;2022-07-19T09:49:05;28.80;25.90
9271;DHT22;4673;53.458;9.940;2022-07-19T09:51:33;29.00;25.40
9271;DHT22;4673;53.458;9.940;2022-07-19T09:53:59;29.00;25.20
9271;DHT22;4673;53.458;9.940;2022-07-19T09:56:26;29.10;25.90
9271;DHT22;4673;53.458;9.940;2022-07-19T09:58:54;29.20;25.00
9271;DHT22;4673;53.458;9.940;2022-07-19T10:01:21;29.30;24.10
9271;DHT22;4673;53.458;9.940;2022-07-19T10:03:47;29.30;21.80
9271;DHT22;4673;53.458;9.940;2022-07-19T10:06:13;29.40;21.40
9271;DHT22;4673;53.458;9.940;2022-07-19T10:08:39;29.40;20.60
9271;DHT22;4673;53.458;9.940;2022-07-19T10:11:05;29.60;20.50
9271;DHT22;4673;53.458;9.940;2022-07-19T10:13:32;29.60;21.40
9271;DHT22;4673;53.458;9.940;2022-07-19T10:15:59;29.70;20.70
9271;DHT22;4673;53.458;9.940;2022-07-19T10:18:28;29.80;19.70
9271;DHT22;4673;53.458;9.940;2022-07-19T10:20:59;29.90;21.70
9271;DHT22;4673;53.458;9.940;2022-07-19T10:23:29;30.10;20.90
9271;DHT22;4673;53.458;9.940;2022-07-19T10:25:57;30.20;22.20
9271;DHT22;4673;53.458;9.940;2022-07-19T10:28:36;30.20;19.70
9271;DHT22;4673;53.458;9.940;2022-07-19T10:34:06;30.30;18.50
9271;DHT22;4673;53.458;9.940;2022-07-19T10:36:46;30.40;19.30
9271;DHT22;4673;53.458;9.940;2022-07-19T10:39:23;30.60;17.00
9271;DHT22;4673;53.458;9.940;2022-07-19T10:42:04;30.60;17.60
9271;DHT22;4673;53.458;9.940;2022-07-19T10:44:30;30.60;17.80
9271;DHT22;4673;53.458;9.940;2022-07-19T10:46:56;30.60;19.60
9271;DHT22;4673;53.458;9.940;2022-07-19T10:49:41;30.70;15.50
9271;DHT22;4673;53.458;9.940;2022-07-19T10:58:12;30.90;15.90
9271;DHT22;4673;53.458;9.940;2022-07-19T11:00:47;31.00;15.40
9271;DHT22;4673;53.458;9.940;2022-07-19T11:05:59;31.10;13.80
9271;DHT22;4673;53.458;9.940;2022-07-19T11:08:40;31.20;12.10
9271;DHT22;4673;53.458;9.940;2022-07-19T11:11:17;31.20;12.40
9271;DHT22;4673;53.458;9.940;2022-07-19T11:13:46;31.30;12.90
9271;DHT22;4673;53.458;9.940;2022-07-19T11:16:12;31.40;12.80
9271;DHT22;4673;53.458;9.940;2022-07-19T11:18:38;31.40;13.20
9271;DHT22;4673;53.458;9.940;2022-07-19T11:21:06;31.50;13.10
9271;DHT22;4673;53.458;9.940;2022-07-19T11:23:34;31.60;13.70
9271;DHT22;4673;53.458;9.940;2022-07-19T11:26:16;31.60;11.10
9271;DHT22;4673;53.458;9.940;2022-07-19T11:28:45;31.50;12.20
9271;DHT22;4673;53.458;9.940;2022-07-19T11:31:22;31.60;12.90
9271;DHT22;4673;53.458;9.940;2022-07-19T11:33:50;31.80;10.70
9271;DHT22;4673;53.458;9.940;2022-07-19T11:36:17;31.80;9.90
9271;DHT22;4673;53.458;9.940;2022-07-19T11:39:03;31.80;10.60
9271;DHT22;4673;53.458;9.940;2022-07-19T11:41:32;31.80;11.10
9271;DHT22;4673;53.458;9.940;2022-07-19T11:44:02;31.90;9.90
9271;DHT22;4673;53.458;9.940;2022-07-19T11:46:36;31.90;11.30
9271;DHT22;4673;53.458;9.940;2022-07-19T11:49:10;31.90;10.20
9271;DHT22;4673;53.458;9.940;2022-07-19T11:51:38;32.00;9.00
9271;DHT22;4673;53.458;9.940;2022-07-19T11:54:06;32.10;9.10
9271;DHT22;4673;53.458;9.940;2022-07-19T11:56:33;32.10;8.00
9271;DHT22;4673;53.458;9.940;2022-07-19T11:59:02;32.20;7.90
9271;DHT22;4673;53.458;9.940;2022-07-19T12:01:29;32.20;7.90
9271;DHT22;4673;53.458;9.940;2022-07-19T12:06:39;32.40;9.40
9271;DHT22;4673;53.458;9.940;2022-07-19T12:09:06;32.50;9.60
9271;DHT22;4673;53.458;9.940;2022-07-19T12:11:38;32.40;9.00
9271;DHT22;4673;53.458;9.940;2022-07-19T12:14:22;32.40;9.00
9271;DHT22;4673;53.458;9.940;2022-07-19T12:16:50;32.50;9.30
9271;DHT22;4673;53.458;9.940;2022-07-19T12:19:16;32.50;9.30
9271;DHT22;4673;53.458;9.940;2022-07-19T12:21:46;32.50;9.60
9271;DHT22;4673;53.458;9.940;2022-07-19T12:26:44;32.60;9.90
9271;DHT22;4673;53.458;9.940;2022-07-19T12:31:50;32.60;9.00
9271;DHT22;4673;53.458;9.940;2022-07-19T12:34:16;32.50;8.50
9271;DHT22;4673;53.458;9.940;2022-07-19T12:36:42;32.50;9.00
9271;DHT22;4673;53.458;9.940;2022-07-19T12:39:55;32.60;8.80
9271;DHT22;4673;53.458;9.940;2022-07-19T12:42:21;32.60;9.30
9271;DHT22;4673;53.458;9.940;2022-07-19T12:44:46;32.70;9.20
9271;DHT22;4673;53.458;9.940;2022-07-19T12:47:14;32.80;7.90
9271;DHT22;4673;53.458;9.940;2022-07-19T12:49:47;32.80;8.30
9271;DHT22;4673;53.458;9.940;2022-07-19T12:52:13;32.90;7.20
9271;DHT22;4673;53.458;9.940;2022-07-19T12:54:39;32.80;7.70
9271;DHT22;4673;53.458;9.940;2022-07-19T12:57:05;32.80;8.10
9271;DHT22;4673;53.458;9.940;2022-07-19T12:59:31;32.90;7.80
9271;DHT22;4673;53.458;9.940;2022-07-19T13:02:13;33.00;8.20
9271;DHT22;4673;53.458;9.940;2022-07-19T13:04:40;32.90;6.90
9271;DHT22;4673;53.458;9.940;2022-07-19T13:07:08;32.90;7.20
9271;DHT22;4673;53.458;9.940;2022-07-19T13:09:34;33.00;8.50
9271;DHT22;4673;53.458;9.940;2022-07-19T13:12:02;33.20;7.20
9271;DHT22;4673;53.458;9.940;2022-07-19T13:14:28;33.20;6.30
9271;DHT22;4673;53.458;9.940;2022-07-19T13:16:54;33.20;6.80
9271;DHT22;4673;53.458;9.940;2022-07-19T13:19:20;33.20;6.50
9271;DHT22;4673;53.458;9.940;2022-07-19T13:21:46;33.10;5.40
9271;DHT22;4673;53.458;9.940;2022-07-19T13:24:12;33.20;5.90
9271;DHT22;4673;53.458;9.940;2022-07-19T13:26:38;33.20;5.30
9271;DHT22;4673;53.458;9.940;2022-07-19T13:29:04;33.10;5.70
9271;DHT22;4673;53.458;9.940;2022-07-19T13:31:30;33.10;5.50
9271;DHT22;4673;53.458;9.940;2022-07-19T13:33:55;33.10;5.00
9271;DHT22;4673;53.458;9.940;2022-07-19T13:36:21;33.10;5.40
9271;DHT22;4673;53.458;9.940;2022-07-19T13:38:47;33.10;5.60
9271;DHT22;4673;53.458;9.940;2022-07-19T13:41:13;33.20;5.30
9271;DHT22;4673;53.458;9.940;2022-07-19T13:43:39;33.20;5.40
9271;DHT22;4673;53.458;9.940;2022-07-19T13:46:05;33.30;5.30
9271;DHT22;4673;53.458;9.940;2022-07-19T13:48:30;33.30;5.00
9271;DHT22;4673;53.458;9.940;2022-07-19T13:50:56;33.30;5.60
9271;DHT22;4673;53.458;9.940;2022-07-19T13:53:22;33.40;5.00
9271;DHT22;4673;53.458;9.940;2022-07-19T13:55:47;33.30;5.10
9271;DHT22;4673;53.458;9.940;2022-07-19T13:58:13;33.30;5.00
9271;DHT22;4673;53.458;9.940;2022-07-19T14:00:39;33.30;5.00
9271;DHT22;4673;53.458;9.940;2022-07-19T14:03:06;33.30;5.00
9271;DHT22;4673;53.458;9.940;2022-07-19T14:05:31;33.30;5.00
9271;DHT22;4673;53.458;9.940;2022-07-19T14:07:57;33.30;5.00
9271;DHT22;4673;53.458;9.940;2022-07-19T14:10:23;33.20;5.00
9271;DHT22;4673;53.458;9.940;2022-07-19T14:12:49;33.30;5.00
9271;DHT22;4673;53.458;9.940;2022-07-19T14:15:14;33.30;5.00
9271;DHT22;4673;53.458;9.940;2022-07-19T14:17:41;33.40;5.00
9271;DHT22;4673;53.458;9.940;2022-07-19T14:20:07;33.40;5.00
9271;DHT22;4673;53.458;9.940;2022-07-19T14:22:33;33.40;5.00
9271;DHT22;4673;53.458;9.940;2022-07-19T14:24:59;33.30;5.00
9271;DHT22;4673;53.458;9.940;2022-07-19T14:27:25;33.30;5.00
9271;DHT22;4673;53.458;9.940;2022-07-19T14:29:51;33.30;5.00
9271;DHT22;4673;53.458;9.940;2022-07-19T14:32:17;33.30;5.00
9271;DHT22;4673;53.458;9.940;2022-07-19T14:34:43;33.40;5.00
9271;DHT22;4673;53.458;9.940;2022-07-19T14:37:08;33.40;5.00
9271;DHT22;4673;53.458;9.940;2022-07-19T14:39:34;33.30;5.00
9271;DHT22;4673;53.458;9.940;2022-07-19T14:42:00;33.40;5.00
9271;DHT22;4673;53.458;9.940;2022-07-19T14:44:26;33.40;5.00
9271;DHT22;4673;53.458;9.940;2022-07-19T14:46:52;33.50;5.00
9271;DHT22;4673;53.458;9.940;2022-07-19T14:49:20;33.60;5.00
9271;DHT22;4673;53.458;9.940;2022-07-19T14:51:46;33.60;5.00
9271;DHT22;4673;53.458;9.940;2022-07-19T14:54:12;33.60;5.00
9271;DHT22;4673;53.458;9.940;2022-07-19T14:56:38;33.60;5.00
9271;DHT22;4673;53.458;9.940;2022-07-19T14:59:05;33.60;5.00
9271;DHT22;4673;53.458;9.940;2022-07-19T15:01:30;33.60;5.00
9271;DHT22;4673;53.458;9.940;2022-07-19T15:03:56;33.60;5.00
9271;DHT22;4673;53.458;9.940;2022-07-19T15:06:22;33.70;5.00
9271;DHT22;4673;53.458;9.940;2022-07-19T15:08:47;33.70;5.00
9271;DHT22;4673;53.458;9.940;2022-07-19T15:11:14;33.70;5.00
9271;DHT22;4673;53.458;9.940;2022-07-19T15:13:39;33.70;5.00
9271;DHT22;4673;53.458;9.940;2022-07-19T15:16:05;33.70;5.00
9271;DHT22;4673;53.458;9.940;2022-07-19T15:18:31;33.70;5.00
9271;DHT22;4673;53.458;9.940;2022-07-19T15:20:57;33.70;5.00
9271;DHT22;4673;53.458;9.940;2022-07-19T15:23:23;33.80;5.00
9271;DHT22;4673;53.458;9.940;2022-07-19T15:25:49;33.80;5.00
9271;DHT22;4673;53.458;9.940;2022-07-19T15:28:14;33.80;5.00
9271;DHT22;4673;53.458;9.940;2022-07-19T15:30:42;33.80;5.00
9271;DHT22;4673;53.458;9.940;2022-07-19T15:33:08;33.80;5.00
9271;DHT22;4673;53.458;9.940;2022-07-19T15:35:33;33.70;5.00
9271;DHT22;4673;53.458;9.940;2022-07-19T15:37:59;33.80;5.00
9271;DHT22;4673;53.458;9.940;2022-07-19T15:40:25;33.80;5.00
9271;DHT22;4673;53.458;9.940;2022-07-19T15:42:51;33.80;5.00
9271;DHT22;4673;53.458;9.940;2022-07-19T15:45:19;33.70;5.00
9271;DHT22;4673;53.458;9.940;2022-07-19T15:47:45;33.70;5.00
9271;DHT22;4673;53.458;9.940;2022-07-19T15:50:13;33.70;5.00
9271;DHT22;4673;53.458;9.940;2022-07-19T15:52:39;33.60;5.00
9271;DHT22;4673;53.458;9.940;2022-07-19T15:55:06;33.60;5.00
9271;DHT22;4673;53.458;9.940;2022-07-19T15:57:32;33.50;5.00
9271;DHT22;4673;53.458;9.940;2022-07-19T15:59:58;33.40;5.00
9271;DHT22;4673;53.458;9.940;2022-07-19T16:02:24;33.40;5.00
9271;DHT22;4673;53.458;9.940;2022-07-19T16:04:50;33.40;5.00
9271;DHT22;4673;53.458;9.940;2022-07-19T16:07:17;33.50;5.00
9271;DHT22;4673;53.458;9.940;2022-07-19T16:09:42;33.50;5.00
9271;DHT22;4673;53.458;9.940;2022-07-19T16:12:14;33.40;5.00
9271;DHT22;4673;53.458;9.940;2022-07-19T16:14:40;33.50;5.00
9271;DHT22;4673;53.458;9.940;2022-07-19T16:17:07;33.40;5.00
9271;DHT22;4673;53.458;9.940;2022-07-19T16:19:33;33.40;5.00
9271;DHT22;4673;53.458;9.940;2022-07-19T16:21:58;33.40;5.00
9271;DHT22;4673;53.458;9.940;2022-07-19T16:24:24;33.40;5.00
9271;DHT22;4673;53.458;9.940;2022-07-19T16:26:50;33.30;5.00
9271;DHT22;4673;53.458;9.940;2022-07-19T16:29:15;33.20;5.00